Time;durP1;ratioP1;P1;durP2;ratioP2;P2;SDS_P1;SDS_P2;PMS_P1;PMS_P2;Temp;Humidity;BMP_temperature;BMP_pressure;BME280_temperature;BME280_humidity;BME280_pressure;Samples;Min_cycle;Max_cycle;Signal;HPM_P1;HPM_P2
2021/08/05 00:00:34;;;;;;;21.95;19.77;;;17.60;99.90;;;;;;5051177;28;20074;-57
2021/08/05 00:03:00;;;;;;;21.70;18.88;;;17.60;99.90;;;;;;5051148;28;20445;-56
2021/08/05 00:05:26;;;;;;;22.20;19.90;;;17.60;99.90;;;;;;5051467;28;20426;-55
2021/08/05 00:07:51;;;;;;;25.05;20.75;;;17.50;99.90;;;;;;5051252;28;20391;-54
2021/08/05 00:10:17;;;;;;;21.08;18.80;;;17.50;99.90;;;;;;5051152;28;20100;-54
2021/08/05 00:12:42;;;;;;;21.20;19.17;;;17.30;99.90;;;;;;5051053;28;20029;-54
2021/08/05 00:15:08;;;;;;;22.88;20.55;;;17.20;99.90;;;;;;5049801;28;20049;-53
2021/08/05 00:17:34;;;;;;;25.38;22.00;;;17.40;99.90;;;;;;5051083;28;20041;-54
2021/08/05 00:20:00;;;;;;;25.65;22.85;;;17.50;99.90;;;;;;5051186;28;20405;-53
2021/08/05 00:22:25;;;;;;;28.90;24.25;;;17.40;99.90;;;;;;5051162;28;20551;-53
2021/08/05 00:24:51;;;;;;;28.48;25.67;;;17.50;99.90;;;;;;5051137;28;20032;-54
2021/08/05 00:27:16;;;;;;;27.15;24.35;;;17.50;99.90;;;;;;5051291;28;20108;-54
2021/08/05 00:29:42;;;;;;;31.38;27.98;;;17.30;99.90;;;;;;5050844;28;20108;-53
2021/08/05 00:32:08;;;;;;;32.97;29.50;;;17.30;99.90;;;;;;5051189;28;20029;-52
2021/08/05 00:34:33;;;;;;;31.25;28.05;;;17.30;99.90;;;;;;5053950;28;20111;-52
2021/08/05 00:36:59;;;;;;;29.83;26.63;;;17.50;99.90;;;;;;5054829;28;20021;-53
2021/08/05 00:39:25;;;;;;;27.02;24.27;;;17.40;99.90;;;;;;5054775;28;20029;-52
2021/08/05 00:41:50;;;;;;;29.58;26.50;;;17.20;99.90;;;;;;5054691;28;20017;-53
2021/08/05 00:44:16;;;;;;;33.15;29.73;;;17.20;99.90;;;;;;5054531;28;20025;-52
2021/08/05 00:46:41;;;;;;;36.40;32.47;;;17.50;99.90;;;;;;5054980;28;20029;-52
2021/08/05 00:49:07;;;;;;;40.00;34.78;;;17.70;99.90;;;;;;5054221;28;20021;-52
2021/08/05 00:51:33;;;;;;;43.42;35.10;;;17.90;99.90;;;;;;5052972;28;20064;-52
2021/08/05 00:53:58;;;;;;;38.15;32.70;;;17.90;99.90;;;;;;5054980;28;20021;-52
2021/08/05 00:56:24;;;;;;;37.22;32.67;;;17.60;99.90;;;;;;5054371;28;20033;-52
2021/08/05 00:58:50;;;;;;;33.20;29.70;;;17.40;99.90;;;;;;5054218;28;20029;-52
2021/08/05 01:01:22;;;;;;;35.83;32.00;;;17.20;99.90;;;;;;5054128;28;20086;-52
2021/08/05 01:03:52;;;;;;;33.72;30.08;;;17.10;99.90;;;;;;5054588;28;20025;-52
2021/08/05 01:06:26;;;;;;;35.75;32.00;;;17.00;99.90;;;;;;5052901;28;20036;-52
2021/08/05 01:09:08;;;;;;;39.72;33.60;;;17.10;99.90;;;;;;5054139;28;20052;-52
2021/08/05 01:11:50;;;;;;;36.20;32.38;;;17.30;99.90;;;;;;5054014;28;20033;-52
2021/08/05 01:14:18;;;;;;;33.88;30.42;;;17.30;99.90;;;;;;5054629;28;20044;-52
2021/08/05 01:16:46;;;;;;;34.85;31.13;;;17.20;99.90;;;;;;5054326;28;20025;-53
2021/08/05 01:19:25;;;;;;;36.13;32.35;;;17.10;99.90;;;;;;5054403;28;20032;-52
2021/08/05 01:22:10;;;;;;;38.63;31.05;;;17.10;99.90;;;;;;5054029;28;20416;-52
2021/08/05 01:24:41;;;;;;;33.03;29.70;;;17.00;99.90;;;;;;5054121;28;20399;-52
2021/08/05 01:27:06;;;;;;;33.90;30.48;;;17.00;99.90;;;;;;5054065;28;20044;-52
2021/08/05 01:29:35;;;;;;;39.47;33.13;;;17.00;99.90;;;;;;5053889;28;20029;-52
2021/08/05 01:32:04;;;;;;;36.60;32.72;;;17.00;99.90;;;;;;5053739;28;20032;-52
2021/08/05 01:34:31;;;;;;;41.00;35.80;;;17.00;99.90;;;;;;5053659;28;20402;-52
2021/08/05 01:36:58;;;;;;;41.50;35.60;;;17.10;99.90;;;;;;5053825;28;20029;-52
2021/08/05 01:39:23;;;;;;;37.78;33.70;;;17.10;99.90;;;;;;5053602;28;20021;-52
2021/08/05 01:41:49;;;;;;;39.15;34.55;;;17.10;99.90;;;;;;5053707;28;20040;-52
2021/08/05 01:44:16;;;;;;;38.05;34.05;;;17.10;99.90;;;;;;5053209;28;20064;-52
2021/08/05 01:46:42;;;;;;;38.90;34.33;;;17.10;99.90;;;;;;5052245;28;20029;-52
2021/08/05 01:49:09;;;;;;;38.97;34.90;;;17.10;99.90;;;;;;5053343;28;20079;-52
2021/08/05 01:51:35;;;;;;;38.92;34.00;;;17.10;99.90;;;;;;5053054;28;20132;-52
2021/08/05 01:54:02;;;;;;;40.35;36.10;;;17.10;99.90;;;;;;5053561;28;20029;-52
2021/08/05 01:56:28;;;;;;;45.78;36.90;;;17.20;99.90;;;;;;5053580;28;20035;-52
2021/08/05 01:58:57;;;;;;;45.95;35.45;;;17.10;99.90;;;;;;5053348;28;20116;-52
2021/08/05 02:01:23;;;;;;;42.10;36.30;;;17.00;99.90;;;;;;5053290;28;20053;-52
2021/08/05 02:04:01;;;;;;;40.65;36.33;;;16.90;99.90;;;;;;5053362;28;20440;-52
2021/08/05 02:06:28;;;;;;;38.70;33.75;;;16.80;99.90;;;;;;5052966;28;20021;-52
2021/08/05 02:09:19;;;;;;;41.25;35.67;;;16.80;99.90;;;;;;5053066;28;20117;-52
2021/08/05 02:11:47;;;;;;;41.97;37.28;;;16.80;99.90;;;;;;5052763;28;20049;-52
2021/08/05 02:14:16;;;;;;;41.38;36.83;;;16.90;99.90;;;;;;5052726;28;20025;-52
2021/08/05 02:16:45;;;;;;;42.40;37.72;;;16.80;99.90;;;;;;5053038;28;20024;-52
2021/08/05 02:19:12;;;;;;;48.70;39.05;;;16.90;99.90;;;;;;5053041;28;20051;-52
2021/08/05 02:21:41;;;;;;;47.45;40.08;;;17.00;99.90;;;;;;5052938;28;20069;-52
2021/08/05 02:24:07;;;;;;;46.05;39.97;;;17.00;99.90;;;;;;5052909;28;20039;-52
2021/08/05 02:26:34;;;;;;;47.40;41.17;;;17.00;99.90;;;;;;5052823;28;20603;-52
2021/08/05 02:28:59;;;;;;;47.67;40.15;;;17.00;99.90;;;;;;5051757;28;20044;-52
2021/08/05 02:31:25;;;;;;;44.70;38.78;;;17.00;99.90;;;;;;5052513;28;20037;-52
2021/08/05 02:33:51;;;;;;;44.30;38.42;;;17.00;99.90;;;;;;5051657;28;20491;-52
2021/08/05 02:36:17;;;;;;;43.85;39.17;;;17.00;99.90;;;;;;5052678;28;20147;-52
2021/08/05 02:38:43;;;;;;;44.22;39.38;;;17.10;99.90;;;;;;5052646;28;20025;-52
2021/08/05 02:41:09;;;;;;;47.33;41.13;;;17.20;99.90;;;;;;5052442;28;20033;-52
2021/08/05 02:43:36;;;;;;;49.88;41.60;;;17.20;99.90;;;;;;5052681;28;20040;-52
2021/08/05 02:46:02;;;;;;;44.50;39.65;;;17.10;99.90;;;;;;5052495;28;20047;-52
2021/08/05 02:48:31;;;;;;;47.47;41.88;;;17.10;99.90;;;;;;5052362;28;20024;-52
2021/08/05 02:50:58;;;;;;;47.40;40.67;;;17.20;99.90;;;;;;5052070;28;20053;-52
2021/08/05 02:53:25;;;;;;;47.88;41.15;;;17.20;99.90;;;;;;5052221;28;20021;-52
2021/08/05 02:55:51;;;;;;;49.15;43.67;;;17.10;99.90;;;;;;5051558;28;20040;-52
2021/08/05 02:58:18;;;;;;;52.95;44.90;;;17.10;99.90;;;;;;5052057;28;20024;-52
2021/08/05 03:00:44;;;;;;;52.83;43.42;;;17.10;99.90;;;;;;5052032;28;20028;-52
2021/08/05 03:03:11;;;;;;;54.05;43.58;;;17.00;99.90;;;;;;5052014;28;20025;-52
2021/08/05 03:05:36;;;;;;;57.40;46.00;;;16.90;99.90;;;;;;5052172;28;20029;-52
2021/08/05 03:08:02;;;;;;;52.90;46.30;;;16.80;99.90;;;;;;5051797;28;20074;-52
2021/08/05 03:10:28;;;;;;;54.00;46.30;;;16.80;99.90;;;;;;5051986;28;20050;-52
2021/08/05 03:12:54;;;;;;;60.30;50.63;;;16.80;99.90;;;;;;5051776;28;20056;-52
2021/08/05 03:15:19;;;;;;;63.40;50.55;;;16.80;99.90;;;;;;5051978;28;20032;-52
2021/08/05 03:17:45;;;;;;;60.70;48.28;;;16.80;99.90;;;;;;5051887;28;20028;-52
2021/08/05 03:20:15;;;;;;;61.45;49.58;;;16.70;99.90;;;;;;5050435;28;20024;-52
2021/08/05 03:22:43;;;;;;;60.78;50.45;;;16.70;99.90;;;;;;5051719;28;20036;-52
2021/08/05 03:25:09;;;;;;;69.38;54.58;;;16.60;99.90;;;;;;5051813;28;20055;-52
2021/08/05 03:27:34;;;;;;;74.38;57.60;;;16.50;99.90;;;;;;5051927;28;20116;-52
2021/08/05 03:30:00;;;;;;;76.10;59.15;;;16.50;99.90;;;;;;5051670;28;20533;-52
2021/08/05 03:32:26;;;;;;;70.45;57.67;;;16.40;99.90;;;;;;5051580;28;20039;-52
2021/08/05 03:34:51;;;;;;;75.32;57.22;;;16.30;99.90;;;;;;5051506;28;20381;-52
2021/08/05 03:37:17;;;;;;;77.15;59.60;;;16.30;99.90;;;;;;5050182;28;20032;-52
2021/08/05 03:39:43;;;;;;;75.22;60.22;;;16.30;99.90;;;;;;5051508;28;20057;-52
2021/08/05 03:42:08;;;;;;;77.15;60.03;;;16.30;99.90;;;;;;5051233;28;20033;-52
2021/08/05 03:44:34;;;;;;;80.32;62.08;;;16.30;99.90;;;;;;5051708;28;20448;-52
2021/08/05 03:46:59;;;;;;;76.97;61.10;;;16.30;99.90;;;;;;5051353;28;20118;-52
2021/08/05 03:49:25;;;;;;;75.68;60.97;;;16.30;99.90;;;;;;5050043;28;20025;-52
2021/08/05 03:51:51;;;;;;;81.95;62.08;;;16.40;99.90;;;;;;5051116;28;20049;-52
2021/08/05 03:54:16;;;;;;;79.32;60.67;;;16.50;99.90;;;;;;5051252;28;20060;-52
2021/08/05 03:56:42;;;;;;;72.30;59.47;;;16.60;99.90;;;;;;5051536;28;20493;-52
2021/08/05 03:59:07;;;;;;;73.85;56.72;;;16.50;99.90;;;;;;5051189;28;20021;-52
2021/08/05 04:01:33;;;;;;;79.68;60.80;;;16.40;99.90;;;;;;5051123;28;20037;-52
2021/08/05 04:03:58;;;;;;;80.55;60.83;;;16.40;99.90;;;;;;5051259;28;20389;-52
2021/08/05 04:06:24;;;;;;;84.90;62.83;;;16.40;99.90;;;;;;5051184;28;20082;-52
2021/08/05 04:08:50;;;;;;;78.75;61.10;;;16.30;99.90;;;;;;5054412;28;20500;-52
2021/08/05 04:11:15;;;;;;;81.03;60.05;;;16.30;99.90;;;;;;5055044;28;20053;-52
2021/08/05 04:13:41;;;;;;;92.68;66.82;;;16.30;99.90;;;;;;5055187;28;20035;-52
2021/08/05 04:16:08;;;;;;;94.00;69.47;;;16.30;99.90;;;;;;5055514;28;20484;-52
2021/08/05 04:18:33;;;;;;;83.18;64.13;;;16.20;99.90;;;;;;5055103;28;20071;-52
2021/08/05 04:20:59;;;;;;;86.22;66.95;;;16.10;99.90;;;;;;5054892;28;20025;-51
2021/08/05 04:23:24;;;;;;;84.95;64.00;;;16.00;99.90;;;;;;5054901;28;20029;-52
2021/08/05 04:25:50;;;;;;;91.00;67.07;;;16.10;99.90;;;;;;5054791;28;20428;-52
2021/08/05 04:28:16;;;;;;;87.78;63.90;;;16.10;99.90;;;;;;5054941;28;20025;-52
2021/08/05 04:30:41;;;;;;;86.32;63.50;;;16.10;99.90;;;;;;5054725;28;20021;-52
2021/08/05 04:33:07;;;;;;;83.03;63.67;;;16.00;99.90;;;;;;5054605;28;20552;-52
2021/08/05 04:35:32;;;;;;;77.97;59.47;;;15.90;99.90;;;;;;5054633;28;20037;-52
2021/08/05 04:38:00;;;;;;;80.35;59.42;;;15.90;99.90;;;;;;5054634;28;20056;-52
2021/08/05 04:40:27;;;;;;;81.90;60.63;;;15.90;99.90;;;;;;5054433;28;20025;-51
2021/08/05 04:42:53;;;;;;;78.07;57.20;;;16.00;99.90;;;;;;5054582;28;20079;-52
2021/08/05 04:45:20;;;;;;;71.03;55.95;;;16.10;99.90;;;;;;5053403;28;20056;-52
2021/08/05 04:48:03;;;;;;;70.45;53.28;;;16.20;99.90;;;;;;5054621;28;20033;-52
2021/08/05 04:50:31;;;;;;;68.68;52.67;;;16.10;99.90;;;;;;5054381;28;20056;-52
2021/08/05 04:52:59;;;;;;;65.95;50.75;;;16.00;99.90;;;;;;5054070;28;20047;-52
2021/08/05 04:55:25;;;;;;;69.20;52.70;;;15.80;99.90;;;;;;5054325;28;20021;-52
2021/08/05 04:57:59;;;;;;;80.63;56.63;;;15.80;99.90;;;;;;5054105;28;20496;-52
2021/08/05 05:00:28;;;;;;;80.85;56.85;;;16.00;99.90;;;;;;5054214;28;20025;-52
2021/08/05 05:02:55;;;;;;;75.30;57.15;;;15.90;99.90;;;;;;5054241;28;20025;-51
2021/08/05 05:05:22;;;;;;;76.10;56.15;;;15.80;99.90;;;;;;5054235;28;20059;-52
2021/08/05 05:07:48;;;;;;;68.68;52.55;;;15.80;99.90;;;;;;5054099;28;20508;-51
2021/08/05 05:10:14;;;;;;;71.00;53.33;;;15.80;99.90;;;;;;5054064;28;20029;-52
2021/08/05 05:12:41;;;;;;;66.68;51.10;;;15.90;99.90;;;;;;5054016;28;20112;-52
2021/08/05 05:15:08;;;;;;;69.32;52.90;;;15.80;99.90;;;;;;5054227;28;20078;-52
2021/08/05 05:17:34;;;;;;;74.78;54.85;;;15.80;99.90;;;;;;5054022;28;20104;-52
2021/08/05 05:20:00;;;;;;;72.53;54.60;;;15.90;99.90;;;;;;5053238;28;20067;-52
2021/08/05 05:22:26;;;;;;;74.93;55.30;;;15.90;99.90;;;;;;5053970;28;20029;-52
2021/08/05 05:24:52;;;;;;;69.03;52.15;;;16.00;99.90;;;;;;5054145;28;20028;-52
2021/08/05 05:27:17;;;;;;;60.97;48.63;;;16.00;99.90;;;;;;5053813;28;20036;-52
2021/08/05 05:29:43;;;;;;;67.88;51.13;;;16.00;99.90;;;;;;5053865;28;20071;-52
2021/08/05 05:32:08;;;;;;;64.93;50.22;;;16.10;99.90;;;;;;5053947;28;20436;-52
2021/08/05 05:34:34;;;;;;;69.30;52.08;;;16.30;99.90;;;;;;5053847;28;20091;-52
2021/08/05 05:37:00;;;;;;;62.47;49.25;;;16.50;99.90;;;;;;5053592;28;20025;-52
2021/08/05 05:39:26;;;;;;;63.20;49.80;;;16.40;99.90;;;;;;5053707;28;20045;-52
2021/08/05 05:41:52;;;;;;;66.63;52.22;;;16.30;99.90;;;;;;5053749;28;20064;-52
2021/08/05 05:44:17;;;;;;;72.93;53.45;;;16.40;99.90;;;;;;5053903;28;20435;-52
2021/08/05 05:46:43;;;;;;;67.55;52.17;;;16.50;99.90;;;;;;5053747;28;20028;-52
2021/08/05 05:49:09;;;;;;;63.22;50.10;;;16.60;99.90;;;;;;5053791;28;20112;-52
2021/08/05 05:51:34;;;;;;;63.22;50.50;;;16.70;99.90;;;;;;5053297;28;20098;-52
2021/08/05 05:54:00;;;;;;;68.88;52.45;;;16.80;99.90;;;;;;5053864;28;20104;-51
2021/08/05 05:56:26;;;;;;;68.13;51.58;;;16.90;99.90;;;;;;5053457;28;20024;-51
2021/08/05 05:58:51;;;;;;;70.38;55.67;;;17.00;99.90;;;;;;5053540;28;20029;-51
2021/08/05 06:01:17;;;;;;;74.32;54.78;;;17.20;99.90;;;;;;5045265;28;20444;-51
2021/08/05 06:03:42;;;;;;;68.05;53.00;;;17.20;99.90;;;;;;5046408;28;20028;-51
2021/08/05 06:06:08;;;;;;;65.07;51.97;;;17.30;99.90;;;;;;5051012;28;20032;-51
2021/08/05 06:08:34;;;;;;;61.08;50.45;;;17.30;99.90;;;;;;5049397;28;20179;-51
2021/08/05 06:10:59;;;;;;;66.85;53.42;;;17.20;99.90;;;;;;5033063;28;20104;-51
2021/08/05 06:13:25;;;;;;;66.22;53.58;;;17.30;99.90;;;;;;5034346;28;20026;-51
2021/08/05 06:15:50;;;;;;;68.28;54.03;;;17.60;99.90;;;;;;5033169;28;20032;-51
2021/08/05 06:18:16;;;;;;;68.65;54.70;;;17.70;99.90;;;;;;5037269;28;20385;-51
2021/08/05 06:20:42;;;;;;;73.40;56.50;;;17.80;99.90;;;;;;5047061;28;20096;-50
2021/08/05 06:23:08;;;;;;;67.60;55.35;;;17.80;99.90;;;;;;5041904;28;20034;-51
2021/08/05 06:25:36;;;;;;;65.13;54.35;;;17.60;99.90;;;;;;5034424;28;20029;-51
2021/08/05 06:28:05;;;;;;;67.95;53.50;;;17.60;99.90;;;;;;5043930;28;20025;-51
2021/08/05 06:30:31;;;;;;;63.42;51.75;;;17.70;99.90;;;;;;5037614;28;20389;-51
2021/08/05 06:32:57;;;;;;;63.78;50.58;;;17.70;99.90;;;;;;5040412;28;20025;-51
2021/08/05 06:35:22;;;;;;;65.88;53.53;;;17.60;99.90;;;;;;5042172;28;20028;-51
2021/08/05 06:37:48;;;;;;;63.28;51.55;;;17.60;99.90;;;;;;5050099;28;20033;-51
2021/08/05 06:40:15;;;;;;;59.58;50.05;;;17.60;99.90;;;;;;5036909;28;20057;-51
2021/08/05 06:42:41;;;;;;;58.40;49.10;;;17.60;99.90;;;;;;5034279;28;20038;-51
2021/08/05 06:45:09;;;;;;;59.72;49.45;;;17.60;99.90;;;;;;5033508;28;20117;-51
2021/08/05 06:47:39;;;;;;;59.03;50.30;;;17.80;99.90;;;;;;5042332;28;20546;-51
2021/08/05 06:50:05;;;;;;;53.67;45.90;;;18.10;99.90;;;;;;5049797;28;20039;-51
2021/08/05 06:52:31;;;;;;;51.92;44.65;;;18.50;99.90;;;;;;5045426;28;20520;-51
2021/08/05 06:54:56;;;;;;;51.45;44.33;;;18.70;99.90;;;;;;5053232;28;20099;-51
2021/08/05 06:57:22;;;;;;;48.40;43.10;;;18.90;99.90;;;;;;5038472;28;20029;-52
2021/08/05 06:59:48;;;;;;;50.20;41.22;;;18.90;99.90;;;;;;5049241;28;20032;-51
2021/08/05 07:02:13;;;;;;;49.15;41.00;;;18.90;99.90;;;;;;5048094;28;20033;-51
2021/08/05 07:04:39;;;;;;;45.35;39.38;;;18.90;99.90;;;;;;5037385;28;20029;-52
2021/08/05 07:07:04;;;;;;;44.28;38.55;;;18.90;99.90;;;;;;5039209;28;20025;-54
2021/08/05 07:09:30;;;;;;;39.25;34.88;;;19.60;99.90;;;;;;5045389;28;20025;-56
2021/08/05 07:11:56;;;;;;;33.83;30.35;;;20.70;99.90;;;;;;5042133;28;20033;-56
2021/08/05 07:14:21;;;;;;;32.58;29.27;;;22.10;99.90;;;;;;5037047;28;20370;-53
2021/08/05 07:16:47;;;;;;;31.65;28.35;;;23.30;99.90;;;;;;5037300;28;20111;-54
2021/08/05 07:19:13;;;;;;;32.97;29.55;;;24.20;99.90;;;;;;5052735;28;20032;-54
2021/08/05 07:21:38;;;;;;;32.30;27.00;;;24.30;99.90;;;;;;5040924;28;20163;-53
2021/08/05 07:24:04;;;;;;;29.25;26.15;;;24.50;99.90;;;;;;5052037;28;20041;-53
2021/08/05 07:26:30;;;;;;;30.42;26.95;;;25.90;99.90;;;;;;5038319;28;20026;-53
2021/08/05 07:28:56;;;;;;;27.17;24.48;;;25.50;99.90;;;;;;5037709;28;20045;-53
2021/08/05 07:31:21;;;;;;;26.70;24.10;;;25.40;99.90;;;;;;5039494;28;20048;-53
2021/08/05 07:33:49;;;;;;;28.13;25.20;;;25.50;99.90;;;;;;5051102;28;20037;-54
2021/08/05 07:36:17;;;;;;;27.00;24.30;;;25.80;99.90;;;;;;5041339;28;20060;-54
2021/08/05 07:38:43;;;;;;;25.92;23.40;;;26.70;99.90;;;;;;5047474;28;20033;-54
2021/08/05 07:41:09;;;;;;;26.13;23.63;;;27.60;99.90;;;;;;5041779;28;20052;-54
2021/08/05 07:43:35;;;;;;;29.45;26.55;;;28.10;99.90;;;;;;5033500;28;20034;-53
2021/08/05 07:46:00;;;;;;;31.15;25.95;;;26.60;99.90;;;;;;5043432;28;20029;-54
2021/08/05 07:48:26;;;;;;;29.05;26.08;;;26.70;99.90;;;;;;5037090;28;20429;-53
2021/08/05 07:50:51;;;;;;;27.85;24.65;;;25.70;99.90;;;;;;5042979;28;20057;-53
2021/08/05 07:53:18;;;;;;;28.48;25.50;;;26.20;99.90;;;;;;5033543;28;20099;-53
2021/08/05 07:55:44;;;;;;;27.67;24.95;;;26.60;99.90;;;;;;5036061;28;20025;-53
2021/08/05 07:58:10;;;;;;;28.42;25.42;;;27.30;99.90;;;;;;5033177;28;20441;-54
2021/08/05 08:00:35;;;;;;;28.25;25.23;;;27.40;99.90;;;;;;5043188;28;20104;-53
2021/08/05 08:03:03;;;;;;;28.80;25.70;;;26.70;99.90;;;;;;5052689;28;20048;-54
2021/08/05 08:05:28;;;;;;;26.95;24.15;;;26.50;99.90;;;;;;5040529;28;20028;-54
2021/08/05 08:07:54;;;;;;;27.10;23.67;;;27.20;99.90;;;;;;5034177;28;20116;-54
2021/08/05 08:10:20;;;;;;;30.45;23.73;;;27.00;99.90;;;;;;5040325;28;20026;-54
2021/08/05 08:12:45;;;;;;;23.90;21.23;;;26.70;99.90;;;;;;5042300;28;20037;-54
2021/08/05 08:15:12;;;;;;;21.92;19.73;;;26.60;99.90;;;;;;5045679;28;20029;-54
2021/08/05 08:17:38;;;;;;;22.58;20.15;;;26.30;99.90;;;;;;5034050;28;20109;-55
2021/08/05 08:20:06;;;;;;;24.80;21.27;;;26.50;99.90;;;;;;5032808;28;20466;-54
2021/08/05 08:22:32;;;;;;;24.55;21.92;;;26.50;99.90;;;;;;5034352;28;20060;-54
2021/08/05 08:24:58;;;;;;;24.83;22.27;;;26.40;99.90;;;;;;5040787;28;20402;-54
2021/08/05 08:27:23;;;;;;;25.10;22.27;;;25.90;99.90;;;;;;5050626;28;20074;-54
2021/08/05 08:29:49;;;;;;;24.52;21.08;;;25.40;99.90;;;;;;5048037;28;20029;-54
2021/08/05 08:32:15;;;;;;;23.70;20.42;;;25.70;99.90;;;;;;5045232;28;20029;-53
2021/08/05 08:34:40;;;;;;;22.77;20.42;;;25.10;99.90;;;;;;5034201;28;20018;-54
2021/08/05 08:37:06;;;;;;;25.50;20.42;;;24.90;99.90;;;;;;5042689;28;20023;-54
2021/08/05 08:39:32;;;;;;;23.10;19.48;;;25.60;99.90;;;;;;5039305;28;20477;-54
2021/08/05 08:41:58;;;;;;;23.52;18.60;;;25.50;99.90;;;;;;5034804;28;20029;-54
2021/08/05 08:44:24;;;;;;;18.55;16.55;;;25.50;99.90;;;;;;5048443;28;20444;-54
2021/08/05 08:46:50;;;;;;;18.17;14.38;;;26.50;99.90;;;;;;5034461;28;20056;-54
2021/08/05 08:49:23;;;;;;;15.85;14.15;;;26.20;99.90;;;;;;5037167;28;20037;-53
2021/08/05 08:51:50;;;;;;;18.58;14.25;;;26.40;99.90;;;;;;5040170;28;20393;-53
2021/08/05 08:54:16;;;;;;;15.50;13.88;;;25.80;99.90;;;;;;5039713;28;20647;-54
2021/08/05 08:56:42;;;;;;;18.25;13.25;;;25.80;99.90;;;;;;5046470;28;20022;-54
2021/08/05 08:59:08;;;;;;;15.80;13.30;;;27.20;99.90;;;;;;5050520;28;20552;-54
2021/08/05 09:01:39;;;;;;;16.98;14.57;;;26.40;99.90;;;;;;5043573;28;20111;-53
2021/08/05 09:04:07;;;;;;;16.50;14.05;;;25.10;99.90;;;;;;5044202;28;20021;-53
2021/08/05 09:06:33;;;;;;;13.60;11.85;;;24.90;99.90;;;;;;5045291;28;20026;-53
2021/08/05 09:08:59;;;;;;;15.52;11.95;;;25.00;99.90;;;;;;5040875;28;20055;-54
2021/08/05 09:11:24;;;;;;;15.68;13.07;;;25.20;99.90;;;;;;5040084;28;20041;-53
2021/08/05 09:13:50;;;;;;;13.85;11.10;;;25.70;99.90;;;;;;5036490;28;20113;-55
2021/08/05 09:16:25;;;;;;;18.63;14.13;;;26.40;99.90;;;;;;5046994;28;20382;-55
2021/08/05 09:18:52;;;;;;;18.67;15.18;;;26.50;99.90;;;;;;5044574;28;20036;-55
2021/08/05 09:21:23;;;;;;;17.35;12.75;;;26.60;99.90;;;;;;5041206;28;20719;-55
2021/08/05 09:23:54;;;;;;;16.75;11.80;;;26.50;99.90;;;;;;5038435;28;20125;-55
2021/08/05 09:26:29;;;;;;;16.83;11.55;;;26.90;99.00;;;;;;5042342;28;20541;-55
2021/08/05 09:29:15;;;;;;;11.23;9.77;;;26.10;99.90;;;;;;5053908;28;20069;-55
2021/08/05 09:32:03;;;;;;;11.02;8.23;;;25.60;99.90;;;;;;5034684;28;20049;-55
2021/08/05 09:34:39;;;;;;;10.10;8.45;;;26.00;99.20;;;;;;5040273;28;20395;-55
2021/08/05 09:37:10;;;;;;;11.45;9.38;;;25.80;99.70;;;;;;5046001;28;20078;-54
2021/08/05 09:39:41;;;;;;;12.70;8.20;;;26.20;99.90;;;;;;5039274;28;20045;-55
2021/08/05 09:42:12;;;;;;;9.82;8.82;;;26.30;99.00;;;;;;5041239;28;20056;-54
2021/08/05 09:44:37;;;;;;;17.17;8.90;;;25.50;99.90;;;;;;5035076;28;20458;-54
2021/08/05 09:47:14;;;;;;;12.95;9.45;;;26.00;99.90;;;;;;5038293;28;20053;-54
2021/08/05 09:49:54;;;;;;;11.30;9.98;;;26.00;99.90;;;;;;5042842;28;20068;-54
2021/08/05 09:52:33;;;;;;;11.02;8.65;;;25.60;99.90;;;;;;5035926;28;20045;-53
2021/08/05 09:55:01;;;;;;;12.70;9.80;;;25.80;99.90;;;;;;5048307;28;20021;-53
2021/08/05 09:57:29;;;;;;;12.45;10.02;;;26.00;99.40;;;;;;5040401;28;20474;-54
2021/08/05 10:00:00;;;;;;;13.10;10.23;;;25.80;98.90;;;;;;5043931;28;20033;-54
2021/08/05 10:02:47;;;;;;;17.00;11.45;;;25.00;99.90;;;;;;5043332;28;20044;-53
2021/08/05 10:05:26;;;;;;;23.00;13.15;;;24.70;99.90;;;;;;5042795;28;20043;-54
2021/08/05 10:07:53;;;;;;;14.60;11.02;;;25.10;99.90;;;;;;5046812;28;20046;-54
2021/08/05 10:10:21;;;;;;;19.92;12.60;;;24.80;99.90;;;;;;5053786;28;20481;-53
2021/08/05 10:12:51;;;;;;;21.65;12.13;;;24.30;99.90;;;;;;5042815;28;20545;-53
2021/08/05 10:15:18;;;;;;;14.27;10.43;;;23.70;99.90;;;;;;5037611;28;20083;-52
2021/08/05 10:17:45;;;;;;;11.48;8.48;;;23.50;99.90;;;;;;5046607;28;20097;-52
2021/08/05 10:20:12;;;;;;;10.57;6.90;;;23.50;99.90;;;;;;5050815;28;20462;-52
2021/08/05 10:22:39;;;;;;;7.30;5.70;;;23.40;99.90;;;;;;5042346;28;20021;-54
2021/08/05 10:25:11;;;;;;;5.97;5.07;;;23.80;99.90;;;;;;5043978;28;20026;-55
2021/08/05 10:27:37;;;;;;;6.15;5.38;;;24.20;99.90;;;;;;5045287;28;20036;-55
2021/08/05 10:30:06;;;;;;;6.40;5.65;;;24.60;99.90;;;;;;5043124;28;20041;-54
2021/08/05 10:32:33;;;;;;;9.52;6.65;;;24.30;99.90;;;;;;5037324;28;20040;-54
2021/08/05 10:34:59;;;;;;;7.97;7.20;;;24.40;99.90;;;;;;5038324;28;20022;-55
2021/08/05 10:37:26;;;;;;;8.20;7.47;;;24.50;99.90;;;;;;5033992;28;20547;-54
2021/08/05 10:39:52;;;;;;;8.80;7.60;;;24.60;99.90;;;;;;5033064;28;20030;-55
2021/08/05 10:42:19;;;;;;;9.48;7.40;;;24.90;99.90;;;;;;5039689;28;20033;-56
2021/08/05 10:44:49;;;;;;;10.27;7.70;;;25.00;99.90;;;;;;5049618;28;20115;-56
2021/08/05 10:47:24;;;;;;;8.35;7.55;;;25.00;99.90;;;;;;5044305;28;20393;-56
2021/08/05 10:49:56;;;;;;;8.68;7.20;;;25.00;99.90;;;;;;5043984;28;20036;-55
2021/08/05 10:52:38;;;;;;;9.63;6.72;;;24.90;99.90;;;;;;5036782;28;20788;-56
2021/08/05 10:55:18;;;;;;;7.70;6.90;;;25.10;99.90;;;;;;5046743;28;20142;-56
2021/08/05 10:57:45;;;;;;;6.75;6.13;;;25.50;99.90;;;;;;5035584;28;20474;-56
2021/08/05 11:00:15;;;;;;;9.18;6.97;;;25.60;99.90;;;;;;5047908;28;20025;-55
2021/08/05 11:02:50;;;;;;;6.97;5.03;;;26.00;99.90;;;;;;5047023;28;20501;-56
2021/08/05 11:05:22;;;;;;;6.68;4.60;;;26.50;98.80;;;;;;5047370;28;20032;-56
2021/08/05 11:07:52;;;;;;;5.43;4.40;;;26.70;98.50;;;;;;5043030;28;20025;-56
2021/08/05 11:10:26;;;;;;;5.63;3.92;;;28.10;96.20;;;;;;5051412;28;20508;-56
2021/08/05 11:13:15;;;;;;;4.85;4.35;;;28.10;94.70;;;;;;5032171;28;20053;-56
2021/08/05 11:15:40;;;;;;;5.18;4.22;;;27.40;94.80;;;;;;5033219;28;20029;-55
2021/08/05 11:18:15;;;;;;;4.32;3.22;;;27.10;95.90;;;;;;5040233;28;20022;-55
2021/08/05 11:20:53;;;;;;;6.63;3.78;;;27.00;94.10;;;;;;5031727;28;20014;-55
2021/08/05 11:25:58;;;;;;;2.90;2.47;;;25.90;95.30;;;;;;5031837;28;20026;-54
2021/08/05 11:28:24;;;;;;;3.78;2.60;;;25.40;95.70;;;;;;5031105;28;20052;-55
2021/08/05 11:30:54;;;;;;;3.30;3.00;;;26.00;96.20;;;;;;5032103;28;20393;-54
2021/08/05 11:33:39;;;;;;;3.42;2.60;;;26.40;94.70;;;;;;5032024;28;20402;-54
2021/08/05 11:36:11;;;;;;;3.25;2.95;;;27.00;93.10;;;;;;5031086;28;20032;-54
2021/08/05 11:39:07;;;;;;;4.63;2.35;;;26.80;94.50;;;;;;5032056;28;20021;-54
2021/08/05 11:41:46;;;;;;;3.92;2.58;;;26.60;93.90;;;;;;5031824;28;20030;-54
2021/08/05 11:44:35;;;;;;;2.78;2.53;;;26.70;95.50;;;;;;5032405;28;20017;-55
2021/08/05 11:47:13;;;;;;;4.13;2.80;;;27.30;93.70;;;;;;5031908;28;20025;-55
2021/08/05 11:49:57;;;;;;;3.35;2.95;;;26.90;93.70;;;;;;5030668;28;20393;-55
2021/08/05 11:52:28;;;;;;;3.50;2.78;;;25.70;95.80;;;;;;5030321;28;20049;-55
2021/08/05 11:55:06;;;;;;;7.22;3.28;;;27.00;94.80;;;;;;5031966;28;20026;-55
2021/08/05 11:57:43;;;;;;;3.97;2.90;;;27.60;92.30;;;;;;5031846;28;20470;-55
2021/08/05 12:00:24;;;;;;;3.78;3.08;;;28.10;92.10;;;;;;5031763;28;20052;-56
2021/08/05 12:02:53;;;;;;;4.35;3.00;;;28.40;92.60;;;;;;5031999;28;20021;-55
2021/08/05 12:05:21;;;;;;;3.13;2.83;;;28.20;91.30;;;;;;5032044;28;20105;-55
2021/08/05 12:07:49;;;;;;;2.65;2.45;;;26.80;92.60;;;;;;5031364;28;20026;-55
2021/08/05 12:10:26;;;;;;;2.78;2.58;;;26.00;94.50;;;;;;5031397;28;20087;-54
2021/08/05 12:13:04;;;;;;;5.70;2.92;;;26.10;94.60;;;;;;5031729;28;20026;-54
2021/08/05 12:15:34;;;;;;;3.50;2.60;;;26.90;93.00;;;;;;5032041;28;20051;-55
2021/08/05 12:18:16;;;;;;;2.60;2.40;;;27.20;93.00;;;;;;5030710;28;20021;-55
2021/08/05 12:20:46;;;;;;;;;;;27.20;92.00;;;;;;5031012;28;20070;-55
2021/08/05 12:23:24;;;;;;;2.95;2.40;;;26.60;93.40;;;;;;5031572;28;19940;-55
2021/08/05 12:26:04;;;;;;;2.45;2.25;;;26.60;93.20;;;;;;5031420;28;20025;-55
2021/08/05 12:28:34;;;;;;;2.40;2.20;;;27.20;94.30;;;;;;5032264;28;20022;-55
2021/08/05 12:31:06;;;;;;;2.60;2.20;;;27.60;91.10;;;;;;5035364;28;20030;-56
2021/08/05 12:33:36;;;;;;;2.75;2.50;;;28.50;90.80;;;;;;5035495;28;20076;-55
2021/08/05 12:36:06;;;;;;;2.63;1.95;;;28.40;90.40;;;;;;5035524;28;20478;-55
2021/08/05 12:38:41;;;;;;;2.35;2.15;;;28.50;91.20;;;;;;5035471;28;20024;-55